Time;durP1;ratioP1;P1;durP2;ratioP2;P2;SDS_P1;SDS_P2;PMS_P1;PMS_P2;Temp;Humidity;BMP_temperature;BMP_pressure;BME280_temperature;BME280_humidity;BME280_pressure;Samples;Min_cycle;Max_cycle;Signal;HPM_P1;HPM_P2
2022/09/11 00:01:21;;;;;;;1.35;0.45;;;;;;;31.07;23.71;97708.25;5070163;28;20040;-78
2022/09/11 00:03:47;;;;;;;0.40;0.30;;;;;;;29.96;25.49;97709.78;5068085;28;20078;-78
2022/09/11 00:06:16;;;;;;;0.57;0.22;;;;;;;30.24;25.21;97706.72;5069471;28;20048;-78
2022/09/11 00:08:42;;;;;;;0.30;0.30;;;;;;;30.40;25.06;97703.44;5063738;28;20041;-78
2022/09/11 00:11:11;;;;;;;3.70;0.40;;;;;;;30.50;24.97;97696.44;5073073;28;20029;-79
2022/09/11 00:13:39;;;;;;;0.50;0.45;;;;;;;30.77;24.63;97698.97;5068241;28;20036;-78
2022/09/11 00:16:16;;;;;;;1.05;0.52;;;;;;;30.99;24.01;97696.56;5067637;28;20055;-78
2022/09/11 00:18:42;;;;;;;0.38;0.30;;;;;;;30.82;23.76;97697.50;5069937;28;20139;-79
2022/09/11 00:21:08;;;;;;;0.40;0.38;;;;;;;30.49;24.63;97692.03;5072956;28;20481;-78
2022/09/11 00:23:35;;;;;;;0.88;0.40;;;;;;;30.32;24.50;97700.19;5069938;28;20043;-78
2022/09/11 00:26:02;;;;;;;0.90;0.45;;;;;;;30.23;24.84;97690.97;5071927;28;20067;-78
2022/09/11 00:28:29;;;;;;;0.50;0.47;;;;;;;30.12;25.39;97691.56;5073638;28;20421;-78
2022/09/11 00:31:04;;;;;;;0.65;0.50;;;;;;;30.21;24.88;97688.63;5072770;28;20115;-78
2022/09/11 00:33:31;;;;;;;1.17;0.20;;;;;;;30.48;24.70;97684.81;5065242;28;20033;-78
2022/09/11 00:36:02;;;;;;;1.77;0.40;;;;;;;30.61;24.81;97688.13;5069229;28;20032;-78
2022/09/11 00:38:30;;;;;;;0.55;0.30;;;;;;;30.37;24.76;97688.22;5072983;28;20037;-78
2022/09/11 00:40:58;;;;;;;0.30;0.30;;;;;;;30.26;24.43;97693.63;5071063;28;20033;-78
2022/09/11 00:43:26;;;;;;;4.97;0.60;;;;;;;30.38;24.69;97695.44;5064213;28;20031;-78
2022/09/11 00:46:04;;;;;;;0.30;0.30;;;;;;;30.57;24.39;97691.13;5065912;28;20028;-78
2022/09/11 00:48:35;;;;;;;0.30;0.30;;;;;;;30.66;24.34;97705.25;5072242;28;20032;-78
2022/09/11 00:51:03;;;;;;;2.25;0.30;;;;;;;30.73;24.13;97695.56;5070758;28;20106;-78
2022/09/11 00:53:32;;;;;;;0.30;0.30;;;;;;;30.87;24.08;97694.78;5064011;28;20095;-78
2022/09/11 00:56:02;;;;;;;0.40;0.30;;;;;;;30.88;23.98;97701.25;5066989;28;20040;-78
2022/09/11 00:58:32;;;;;;;0.28;0.28;;;;;;;31.04;24.24;97692.25;5069611;28;20095;-78
2022/09/11 01:00:59;;;;;;;1.10;0.40;;;;;;;31.34;23.99;97696.59;5061227;28;20029;-78
2022/09/11 01:03:26;;;;;;;0.75;0.32;;;;;;;31.46;23.60;97689.06;5067457;28;20033;-78
2022/09/11 01:05:55;;;;;;;2.15;0.40;;;;;;;31.27;24.31;97686.41;5070348;28;20377;-78
2022/09/11 01:08:21;;;;;;;0.70;0.32;;;;;;;31.49;23.72;97683.16;5073147;28;20363;-78
2022/09/11 01:10:59;;;;;;;0.57;0.50;;;;;;;31.64;24.29;97691.63;5072743;28;20504;-78
2022/09/11 01:13:50;;;;;;;0.30;0.30;;;;;;;31.72;23.76;97684.25;5065823;28;20045;-78
2022/09/11 01:16:30;;;;;;;0.90;0.40;;;;;;;31.26;24.39;97684.09;5069152;28;20037;-78
2022/09/11 01:19:14;;;;;;;1.17;0.40;;;;;;;31.03;24.69;97682.16;5070202;28;20032;-78
2022/09/11 01:22:12;;;;;;;0.75;0.45;;;;;;;30.78;25.72;97681.47;5067475;28;20448;-78
2022/09/11 01:25:00;;;;;;;0.30;0.30;;;;;;;30.92;25.44;97670.66;5031589;28;20496;-78
2022/09/11 01:27:36;;;;;;;0.40;0.40;;;;;;;31.27;24.92;97677.91;5065671;28;20055;-78
2022/09/11 01:30:15;;;;;;;0.68;0.30;;;;;;;31.54;24.64;97676.00;5069136;28;20024;-78
2022/09/11 01:32:47;;;;;;;0.32;0.32;;;;;;;31.76;24.37;97688.47;5068924;28;20033;-78
2022/09/11 01:35:26;;;;;;;0.60;0.40;;;;;;;31.87;24.73;97679.28;5065729;28;20373;-78
2022/09/11 01:38:12;;;;;;;0.80;0.40;;;;;;;32.11;24.38;97684.78;5067782;28;20063;-78
2022/09/11 01:40:53;;;;;;;0.30;0.30;;;;;;;31.25;25.28;97679.69;5067032;28;20497;-78
2022/09/11 01:43:25;;;;;;;0.55;0.50;;;;;;;30.64;26.60;97679.41;5069093;28;20541;-79
2022/09/11 01:45:53;;;;;;;0.73;0.50;;;;;;;30.95;26.25;97676.09;5048845;28;20412;-79
2022/09/11 01:48:52;;;;;;;1.85;0.40;;;;;;;31.34;26.39;97679.56;5071746;28;20060;-78
2022/09/11 01:51:25;;;;;;;0.38;0.30;;;;;;;31.82;25.43;97680.78;5059610;28;20040;-78
2022/09/11 01:53:54;;;;;;;1.13;0.47;;;;;;;32.17;24.75;97685.63;5064246;28;21686;-78
2022/09/11 01:56:26;;;;;;;3.70;0.52;;;;;;;32.32;24.58;97677.78;5064522;28;20110;-78
2022/09/11 01:58:59;;;;;;;0.77;0.60;;;;;;;32.20;25.02;97665.53;5060166;28;20033;-78
2022/09/11 02:01:31;;;;;;;0.35;0.35;;;;;;;32.19;24.79;97678.16;5068099;28;20501;-79
2022/09/11 02:04:04;;;;;;;1.48;0.45;;;;;;;31.95;25.48;97671.91;5064500;28;20033;-79
2022/09/11 02:06:35;;;;;;;1.10;0.30;;;;;;;31.57;26.29;97681.47;5061892;28;20060;-79
2022/09/11 02:09:08;;;;;;;0.52;0.40;;;;;;;31.50;26.52;97684.75;5066087;28;20079;-80
2022/09/11 02:11:39;;;;;;;0.95;0.40;;;;;;;31.33;26.77;97678.00;5066638;28;20440;-80
2022/09/11 02:14:33;;;;;;;0.40;0.40;;;;;;;30.97;27.55;97686.97;5061582;28;20086;-80
2022/09/11 02:17:11;;;;;;;0.73;0.50;;;;;;;31.21;27.25;97681.94;5058905;28;20076;-80
2022/09/11 02:19:38;;;;;;;0.52;0.50;;;;;;;31.54;26.63;97678.84;5064632;28;20068;-80
2022/09/11 02:22:04;;;;;;;0.40;0.40;;;;;;;31.80;26.05;97676.88;5066151;28;20577;-80
2022/09/11 02:24:30;;;;;;;0.43;0.43;;;;;;;31.97;25.65;97680.75;5057866;28;20037;-80
2022/09/11 02:27:05;;;;;;;1.90;0.40;;;;;;;32.07;25.79;97677.25;5057821;28;20044;-79
2022/09/11 02:29:31;;;;;;;1.52;0.47;;;;;;;32.17;25.05;97677.09;5061282;28;20063;-79
2022/09/11 02:31:59;;;;;;;1.27;0.40;;;;;;;32.21;25.05;97669.91;5063363;28;20098;-79
2022/09/11 02:34:28;;;;;;;1.23;0.60;;;;;;;32.24;25.49;97659.59;5062086;28;20032;-79
2022/09/11 02:37:19;;;;;;;0.43;0.43;;;;;;;32.12;25.83;97657.91;5069327;28;20028;-79
2022/09/11 02:40:13;;;;;;;0.57;0.40;;;;;;;31.68;25.71;97658.91;5071832;28;20040;-79
2022/09/11 02:42:43;;;;;;;1.00;0.40;;;;;;;31.11;26.22;97650.06;5061540;28;20409;-79
2022/09/11 02:45:46;;;;;;;0.40;0.30;;;;;;;31.08;27.11;97653.13;5061468;28;20036;-79
2022/09/11 02:48:27;;;;;;;0.40;0.40;;;;;;;31.40;26.01;97655.69;5065090;28;20500;-79
2022/09/11 02:51:19;;;;;;;0.50;0.30;;;;;;;31.40;26.04;97654.88;5065570;28;20049;-79
2022/09/11 02:53:58;;;;;;;0.68;0.50;;;;;;;31.23;26.25;97662.38;5056047;28;20033;-79
2022/09/11 02:56:51;;;;;;;1.02;0.40;;;;;;;30.99;26.62;97656.06;5068437;28;20032;-79
2022/09/11 02:59:25;;;;;;;0.43;0.43;;;;;;;31.08;26.56;97653.13;5058293;28;20032;-79
2022/09/11 03:01:54;;;;;;;1.38;0.30;;;;;;;30.99;26.74;97659.69;5061527;28;20151;-79
2022/09/11 03:04:21;;;;;;;0.57;0.50;;;;;;;30.72;27.11;97654.31;5064843;28;20485;-79
2022/09/11 03:06:50;;;;;;;0.50;0.50;;;;;;;30.48;27.59;97657.22;5062071;28;20486;-79
2022/09/11 03:09:17;;;;;;;4.82;0.70;;;;;;;30.54;27.70;97655.31;5063033;28;20032;-79
2022/09/11 03:11:43;;;;;;;1.55;0.68;;;;;;;30.60;27.70;97658.22;5062849;28;20025;-79
2022/09/11 03:14:10;;;;;;;0.75;0.50;;;;;;;30.59;27.90;97656.66;5066574;28;20405;-79
2022/09/11 03:16:36;;;;;;;3.25;0.52;;;;;;;30.78;27.65;97655.97;5062461;28;20031;-79
2022/09/11 03:19:04;;;;;;;0.57;0.52;;;;;;;30.70;27.75;97662.53;5065462;28;20051;-79
2022/09/11 03:21:30;;;;;;;1.17;0.40;;;;;;;30.99;26.96;97658.91;5065574;28;20056;-79
2022/09/11 03:23:56;;;;;;;1.08;0.52;;;;;;;30.93;26.98;97667.31;5065814;28;20036;-79
2022/09/11 03:26:24;;;;;;;0.77;0.50;;;;;;;30.71;27.38;97664.84;5067597;28;20059;-79
2022/09/11 03:28:51;;;;;;;1.00;0.43;;;;;;;30.80;27.34;97657.53;5067454;28;20035;-79
2022/09/11 03:31:17;;;;;;;0.60;0.60;;;;;;;30.77;27.57;97660.09;5067466;28;20036;-79
2022/09/11 03:33:43;;;;;;;0.95;0.47;;;;;;;30.88;27.12;97655.88;5070295;28;20030;-79
2022/09/11 03:36:10;;;;;;;0.57;0.50;;;;;;;30.51;27.59;97661.16;5065525;28;20072;-79
2022/09/11 03:38:37;;;;;;;0.50;0.50;;;;;;;30.72;27.30;97657.13;5069293;28;20033;-79
2022/09/11 03:41:03;;;;;;;0.95;0.50;;;;;;;30.61;27.46;97657.75;5068624;28;20029;-79
2022/09/11 03:43:29;;;;;;;1.00;0.40;;;;;;;30.83;27.30;97654.47;5066832;28;20416;-79
2022/09/11 03:45:56;;;;;;;0.45;0.45;;;;;;;30.43;27.97;97654.31;5068398;28;20119;-79
2022/09/11 03:48:24;;;;;;;0.45;0.45;;;;;;;30.62;27.56;97655.69;5069524;28;20489;-79
2022/09/11 03:50:50;;;;;;;2.05;0.43;;;;;;;30.67;27.46;97652.16;5072402;28;20048;-79
2022/09/11 03:53:16;;;;;;;0.65;0.40;;;;;;;30.80;27.29;97649.03;5070887;28;20032;-79
2022/09/11 03:55:45;;;;;;;0.40;0.40;;;;;;;30.61;27.44;97649.25;5067787;28;20035;-79
2022/09/11 03:58:11;;;;;;;1.05;0.52;;;;;;;30.61;27.64;97654.91;5064455;28;20111;-79
2022/09/11 04:00:42;;;;;;;0.40;0.40;;;;;;;30.23;27.99;97652.09;5068074;28;20446;-79
2022/09/11 04:03:09;;;;;;;0.40;0.40;;;;;;;30.33;28.08;97652.84;5068225;28;20037;-78
2022/09/11 04:05:37;;;;;;;0.45;0.45;;;;;;;30.51;28.15;97659.09;5066832;28;20037;-79
2022/09/11 04:08:03;;;;;;;0.80;0.60;;;;;;;30.34;28.19;97649.50;5069715;28;20073;-79
2022/09/11 04:10:31;;;;;;;0.60;0.50;;;;;;;29.83;28.87;97652.63;5070330;28;20039;-79
2022/09/11 04:12:58;;;;;;;0.60;0.60;;;;;;;30.13;28.33;97652.69;5071614;28;20032;-79
2022/09/11 04:15:24;;;;;;;2.55;0.50;;;;;;;30.39;28.01;97650.88;5067155;28;20511;-79
2022/09/11 04:17:50;;;;;;;0.65;0.63;;;;;;;30.43;28.46;97648.66;5063682;28;20048;-79
2022/09/11 04:20:16;;;;;;;0.60;0.55;;;;;;;30.38;28.22;97649.34;5068226;28;20115;-79
2022/09/11 04:22:42;;;;;;;0.50;0.50;;;;;;;30.48;28.13;97648.72;5067804;28;20094;-79
2022/09/11 04:25:09;;;;;;;0.75;0.63;;;;;;;30.42;28.17;97645.03;5068018;28;20427;-79
2022/09/11 04:27:36;;;;;;;0.40;0.40;;;;;;;30.38;28.33;97658.63;5071476;28;20051;-79
2022/09/11 04:30:02;;;;;;;2.75;0.73;;;;;;;30.43;28.04;97655.09;5069226;28;20028;-79
2022/09/11 04:32:28;;;;;;;1.00;0.60;;;;;;;30.55;28.24;97654.00;5071727;28;20045;-79
2022/09/11 04:34:54;;;;;;;0.75;0.50;;;;;;;30.33;28.53;97652.84;5070358;28;20032;-79
2022/09/11 04:37:21;;;;;;;1.55;0.70;;;;;;;30.55;28.19;97650.41;5073402;28;20032;-79
2022/09/11 04:39:47;;;;;;;0.60;0.60;;;;;;;30.07;29.08;97653.38;5068504;28;20429;-79
2022/09/11 04:42:13;;;;;;;1.13;0.60;;;;;;;29.87;29.29;97655.28;5070721;28;20028;-79
2022/09/11 04:44:40;;;;;;;1.70;0.80;;;;;;;29.87;29.43;97663.75;5066560;28;20028;-79
2022/09/11 04:47:06;;;;;;;1.42;0.65;;;;;;;29.60;29.84;97659.03;5065670;28;20029;-79
2022/09/11 04:49:32;;;;;;;1.00;0.60;;;;;;;30.05;29.13;97658.72;5065251;28;20048;-79
2022/09/11 04:52:01;;;;;;;0.77;0.70;;;;;;;30.09;29.00;97664.19;5073244;28;20123;-79
2022/09/11 04:54:28;;;;;;;1.35;1.08;;;;;;;30.07;29.10;97663.91;5073563;28;20028;-79
2022/09/11 04:56:54;;;;;;;1.33;1.00;;;;;;;30.00;29.47;97670.72;5072401;28;20040;-79
2022/09/11 04:59:22;;;;;;;1.48;0.88;;;;;;;30.50;28.58;97665.28;5068774;28;20039;-79
2022/09/11 05:01:49;;;;;;;2.45;0.80;;;;;;;30.45;28.74;97666.72;5065963;28;20044;-79
2022/09/11 05:04:17;;;;;;;1.85;0.60;;;;;;;30.54;28.58;97665.84;5072675;28;20082;-79
2022/09/11 05:06:47;;;;;;;0.60;0.60;;;;;;;30.64;28.38;97667.31;5068697;28;20028;-79
2022/09/11 05:09:14;;;;;;;0.65;0.60;;;;;;;30.20;28.96;97669.31;5070418;28;20147;-79
2022/09/11 05:11:41;;;;;;;0.82;0.60;;;;;;;30.13;29.25;97670.44;5072030;28;20032;-79
2022/09/11 05:14:07;;;;;;;0.55;0.55;;;;;;;30.53;28.63;97665.06;5073510;28;20029;-79
2022/09/11 05:16:35;;;;;;;1.40;0.73;;;;;;;30.00;29.02;97673.56;5073010;28;20028;-79
2022/09/11 05:19:05;;;;;;;1.05;0.93;;;;;;;29.52;29.77;97663.50;5066142;28;20068;-79
2022/09/11 05:21:32;;;;;;;0.77;0.70;;;;;;;30.08;29.43;97673.97;5073054;28;20036;-79
2022/09/11 05:24:00;;;;;;;0.73;0.70;;;;;;;30.02;29.33;97671.03;5073619;28;20028;-79
2022/09/11 05:26:28;;;;;;;2.35;1.08;;;;;;;30.29;28.98;97664.34;5069318;28;20793;-79
2022/09/11 05:28:56;;;;;;;1.90;0.88;;;;;;;29.93;29.48;97661.81;5073105;28;20028;-79
2022/09/11 05:31:24;;;;;;;1.08;0.90;;;;;;;29.70;29.98;97671.09;5069072;28;20044;-79
2022/09/11 05:33:51;;;;;;;1.48;0.90;;;;;;;30.34;29.04;97666.50;5067963;28;20031;-79
2022/09/11 05:36:17;;;;;;;1.65;0.82;;;;;;;30.03;29.55;97672.59;5068048;28;20032;-79
2022/09/11 05:38:43;;;;;;;0.73;0.73;;;;;;;29.71;30.18;97664.16;5059765;28;20048;-79
2022/09/11 05:41:12;;;;;;;1.88;0.70;;;;;;;30.32;29.07;97669.00;5064121;28;20116;-79
2022/09/11 05:43:39;;;;;;;0.95;0.90;;;;;;;30.71;28.62;97678.25;5069225;28;20032;-79
2022/09/11 05:46:07;;;;;;;0.73;0.73;;;;;;;30.41;28.97;97677.44;5062280;28;20035;-79
2022/09/11 05:48:35;;;;;;;1.08;0.60;;;;;;;30.04;30.10;97665.66;5063913;28;20032;-79
2022/09/11 05:51:05;;;;;;;1.30;0.80;;;;;;;30.41;29.07;97671.78;5066526;28;20514;-79
2022/09/11 05:53:32;;;;;;;0.82;0.75;;;;;;;30.55;28.70;97662.50;5061248;28;20036;-80
2022/09/11 05:56:18;;;;;;;0.80;0.75;;;;;;;30.84;28.58;97658.91;5061005;28;20476;-80
2022/09/11 05:58:46;;;;;;;0.80;0.70;;;;;;;30.49;29.22;97660.84;5064300;28;20029;-79
2022/09/11 06:01:14;;;;;;;1.33;0.70;;;;;;;30.81;29.19;97667.63;5067852;28;20039;-79
2022/09/11 06:03:41;;;;;;;3.60;0.80;;;;;;;30.48;29.50;97667.81;5063325;28;20033;-79
2022/09/11 06:06:09;;;;;;;2.17;1.00;;;;;;;30.73;28.97;97672.88;5060768;28;20490;-79
2022/09/11 06:08:37;;;;;;;0.90;0.82;;;;;;;30.50;29.21;97673.78;5059960;28;20492;-79
2022/09/11 06:11:06;;;;;;;0.80;0.80;;;;;;;30.36;30.01;97668.88;5058876;28;20032;-79
2022/09/11 06:13:39;;;;;;;0.93;0.68;;;;;;;30.46;29.67;97673.16;5055989;28;20047;-79
2022/09/11 06:16:15;;;;;;;1.23;0.93;;;;;;;30.84;29.25;97675.13;5063503;28;20036;-80
2022/09/11 06:18:41;;;;;;;0.90;0.70;;;;;;;30.78;28.83;97664.47;5060072;28;20044;-80
2022/09/11 06:21:11;;;;;;;2.53;1.05;;;;;;;30.44;28.91;97679.31;5061159;28;20047;-80
2022/09/11 06:23:40;;;;;;;0.75;0.63;;;;;;;30.53;29.55;97678.44;5064374;28;20037;-79
2022/09/11 06:26:09;;;;;;;1.30;0.60;;;;;;;31.03;28.74;97676.50;5065938;28;20115;-80
2022/09/11 06:28:36;;;;;;;0.80;0.80;;;;;;;30.41;29.28;97676.69;5063730;28;20028;-79
2022/09/11 06:31:08;;;;;;;0.90;0.60;;;;;;;30.48;29.96;97679.91;5062536;28;20029;-79
2022/09/11 06:33:39;;;;;;;1.10;0.75;;;;;;;30.64;29.98;97678.66;5061052;28;20033;-79
2022/09/11 06:36:09;;;;;;;0.77;0.70;;;;;;;30.45;30.41;97677.28;5059425;28;20497;-79
2022/09/11 06:38:37;;;;;;;0.70;0.70;;;;;;;31.50;28.82;97676.22;5060052;28;20021;-80
2022/09/11 06:41:05;;;;;;;0.60;0.50;;;;;;;31.97;28.42;97675.81;5065219;28;20051;-80
2022/09/11 06:43:32;;;;;;;1.13;0.70;;;;;;;31.48;29.17;97680.81;5068474;28;20119;-81
2022/09/11 06:46:15;;;;;;;1.48;1.15;;;;;;;30.18;31.21;97678.28;5063611;28;20496;-81
2022/09/11 06:48:46;;;;;;;1.15;0.85;;;;;;;30.44;31.20;97682.16;5067936;28;20117;-80
2022/09/11 06:51:14;;;;;;;0.75;0.68;;;;;;;30.46;30.26;97676.00;5065467;28;20059;-79
2022/09/11 06:53:41;;;;;;;0.63;0.60;;;;;;;30.63;29.89;97683.53;5069485;28;20120;-79
2022/09/11 06:56:13;;;;;;;1.20;0.77;;;;;;;30.85;29.61;97679.53;5068682;28;20048;-80
2022/09/11 06:58:40;;;;;;;0.70;0.70;;;;;;;30.06;30.53;97673.66;5073308;28;20100;-79
2022/09/11 07:01:11;;;;;;;2.00;0.90;;;;;;;29.97;31.67;97676.56;5072496;28;20670;-80
2022/09/11 07:03:45;;;;;;;0.90;0.90;;;;;;;30.02;31.25;97673.06;5062131;28;20121;-80
2022/09/11 07:06:13;;;;;;;1.85;0.98;;;;;;;30.86;29.97;97662.00;5070132;28;20040;-79
2022/09/11 07:08:39;;;;;;;0.90;0.90;;;;;;;29.91;31.01;97675.69;5084951;28;20123;-80
2022/09/11 07:11:07;;;;;;;0.98;0.90;;;;;;;30.25;30.75;97666.56;5071258;28;20033;-80
2022/09/11 07:13:33;;;;;;;1.00;0.82;;;;;;;30.36;31.30;97674.53;5065016;28;20067;-80
2022/09/11 07:16:01;;;;;;;0.80;0.80;;;;;;;31.09;30.00;97669.63;5069216;28;20039;-81
2022/09/11 07:18:36;;;;;;;1.10;1.00;;;;;;;30.84;31.01;97675.13;5071321;28;20573;-80
2022/09/11 07:21:10;;;;;;;1.00;0.95;;;;;;;31.18;29.70;97666.69;5064837;28;20041;-80
2022/09/11 07:23:37;;;;;;;1.52;1.00;;;;;;;31.21;30.77;97668.53;5069131;28;20120;-81
2022/09/11 07:26:05;;;;;;;1.00;0.90;;;;;;;30.87;30.15;97666.44;5070857;28;20048;-81
2022/09/11 07:28:31;;;;;;;0.70;0.70;;;;;;;30.94;30.13;97668.09;5069711;28;20522;-81
2022/09/11 07:31:12;;;;;;;1.25;1.10;;;;;;;31.10;30.87;97661.91;5067262;28;20039;-81
2022/09/11 07:33:41;;;;;;;1.77;1.10;;;;;;;31.25;30.43;97668.34;5064886;28;20032;-79
2022/09/11 07:36:19;;;;;;;2.75;1.92;;;;;;;30.49;30.69;97660.84;5066612;28;20036;-81
2022/09/11 07:38:47;;;;;;;2.15;1.55;;;;;;;30.46;30.60;97664.66;5065289;28;20563;-80
2022/09/11 07:41:15;;;;;;;1.75;1.35;;;;;;;30.21;31.16;97668.03;5068449;28;20049;-81
2022/09/11 07:43:45;;;;;;;1.70;1.60;;;;;;;30.49;31.18;97655.97;5069998;28;20041;-80
2022/09/11 07:46:12;;;;;;;3.15;1.73;;;;;;;30.24;31.09;97664.22;5066439;28;20037;-81
2022/09/11 07:48:39;;;;;;;3.45;2.25;;;;;;;30.61;30.33;97654.91;5063848;28;20539;-80
2022/09/11 07:51:11;;;;;;;4.60;2.30;;;;;;;30.57;31.23;97662.03;5061094;28;20060;-80
2022/09/11 07:53:39;;;;;;;1.80;1.70;;;;;;;31.14;30.25;97671.00;5070913;28;20160;-80
2022/09/11 07:56:08;;;;;;;3.05;2.30;;;;;;;30.04;32.30;97676.19;5064020;28;20039;-79
2022/09/11 07:58:37;;;;;;;1.80;1.70;;;;;;;30.97;29.76;97672.81;5060939;28;20032;-79
2022/09/11 08:01:07;;;;;;;3.63;3.17;;;;;;;30.58;29.35;97670.03;5062558;28;20203;-79
2022/09/11 08:03:35;;;;;;;3.28;2.83;;;;;;;30.11;32.95;97670.16;5063809;28;20378;-79
2022/09/11 08:06:03;;;;;;;3.03;2.50;;;;;;;30.81;29.62;97665.53;5059892;28;20029;-79
2022/09/11 08:08:30;;;;;;;3.28;2.28;;;;;;;30.53;30.19;97678.44;5061243;28;20036;-80
2022/09/11 08:11:23;;;;;;;3.47;2.95;;;;;;;30.26;30.14;97664.53;5065310;28;20096;-81
2022/09/11 08:13:53;;;;;;;4.97;2.25;;;;;;;30.14;30.60;97674.84;5062381;28;20123;-78
2022/09/11 08:16:22;;;;;;;4.32;2.20;;;;;;;30.74;29.91;97680.88;5066535;28;20091;-79
2022/09/11 08:18:48;;;;;;;3.00;2.78;;;;;;;29.87;31.90;97675.84;5064680;28;20028;-79
2022/09/11 08:21:15;;;;;;;4.75;3.90;;;;;;;27.39;37.80;97682.19;5061946;28;20094;-78
2022/09/11 08:23:43;;;;;;;4.65;4.18;;;;;;;27.82;35.25;97692.44;5062602;28;20049;-78
2022/09/11 08:26:11;;;;;;;4.43;4.10;;;;;;;28.45;34.07;97686.03;5062545;28;20090;-79
2022/09/11 08:28:38;;;;;;;4.90;4.40;;;;;;;28.88;32.64;97677.16;5061733;28;20103;-79
2022/09/11 08:31:05;;;;;;;4.00;3.70;;;;;;;29.62;31.90;97675.53;5066937;28;20547;-79
2022/09/11 08:33:32;;;;;;;4.53;4.20;;;;;;;28.98;32.82;97681.50;5064721;28;20504;-79
2022/09/11 08:35:59;;;;;;;4.43;4.03;;;;;;;29.36;32.31;97683.69;5064627;28;20095;-79
2022/09/11 08:38:26;;;;;;;4.10;3.30;;;;;;;30.07;31.91;97686.56;5066113;28;20485;-79
2022/09/11 08:40:52;;;;;;;3.47;3.22;;;;;;;29.76;33.21;97689.78;5062548;28;20025;-79
2022/09/11 08:43:26;;;;;;;3.60;3.30;;;;;;;29.76;32.11;97680.50;5060348;28;20036;-79
2022/09/11 08:45:58;;;;;;;3.17;2.97;;;;;;;29.01;33.43;97685.44;5060880;28;20075;-79
2022/09/11 08:48:48;;;;;;;4.07;2.85;;;;;;;29.13;32.81;97679.53;5056378;28;20036;-79
2022/09/11 08:51:17;;;;;;;2.80;2.50;;;;;;;30.30;31.60;97682.88;5057260;28;20529;-81
2022/09/11 08:53:44;;;;;;;2.70;2.50;;;;;;;31.12;30.89;97697.03;5056942;28;20124;-82
2022/09/11 08:56:17;;;;;;;3.35;2.58;;;;;;;30.37;31.93;97687.41;5061477;28;20025;-79
2022/09/11 08:58:56;;;;;;;2.20;2.00;;;;;;;30.70;30.80;97693.69;5064083;28;20494;-79
2022/09/11 09:01:42;;;;;;;2.20;2.10;;;;;;;29.98;32.66;97701.56;5064836;28;20048;-78
2022/09/11 09:04:14;;;;;;;2.20;2.10;;;;;;;29.82;34.36;97690.69;5060680;28;21185;-80
2022/09/11 09:07:00;;;;;;;2.47;1.75;;;;;;;29.94;31.83;97691.69;5065586;28;20028;-79
2022/09/11 09:09:54;;;;;;;1.63;1.52;;;;;;;30.19;32.03;97704.56;5067052;28;20417;-79
2022/09/11 09:12:38;;;;;;;1.85;1.75;;;;;;;29.19;34.95;97689.00;5058159;28;20442;-79
2022/09/11 09:15:23;;;;;;;2.38;1.80;;;;;;;29.38;34.16;97693.28;5067189;28;20446;-79
2022/09/11 09:18:04;;;;;;;1.95;1.85;;;;;;;29.70;33.65;97699.38;5064682;28;20102;-79
2022/09/11 09:20:44;;;;;;;1.88;1.70;;;;;;;30.21;31.05;97702.00;5060513;28;20037;-78
2022/09/11 09:23:22;;;;;;;1.90;1.40;;;;;;;30.68;30.78;97714.03;5058677;28;20505;-78
2022/09/11 09:25:51;;;;;;;1.75;1.65;;;;;;;30.08;31.54;97705.88;5068569;28;20040;-79
2022/09/11 09:28:23;;;;;;;1.60;1.55;;;;;;;29.69;33.96;97709.13;5067845;28;20029;-78
2022/09/11 09:30:59;;;;;;;1.85;1.70;;;;;;;30.56;30.79;97706.59;5065882;28;20033;-78
2022/09/11 09:33:34;;;;;;;3.53;1.85;;;;;;;29.88;31.96;97693.63;5063654;28;20086;-78
2022/09/11 09:36:19;;;;;;;1.92;1.83;;;;;;;29.81;34.04;97700.44;5057041;28;20037;-79
2022/09/11 09:38:45;;;;;;;2.50;2.10;;;;;;;29.49;32.18;97703.28;5064097;28;20435;-78
2022/09/11 09:41:25;;;;;;;2.45;2.35;;;;;;;29.36;33.11;97701.47;5070661;28;20040;-78
2022/09/11 09:44:17;;;;;;;2.40;2.20;;;;;;;29.65;32.39;97700.81;5067539;28;20036;-79
2022/09/11 09:46:47;;;;;;;4.53;2.78;;;;;;;29.53;33.24;97698.22;5033299;28;20136;-78
2022/09/11 09:49:34;;;;;;;2.65;2.40;;;;;;;30.03;31.35;97694.47;5065298;28;20136;-78
2022/09/11 09:52:15;;;;;;;2.47;2.30;;;;;;;30.21;32.66;97708.47;5063723;28;20128;-79
2022/09/11 09:54:48;;;;;;;6.97;2.67;;;;;;;30.28;32.98;97701.63;5053689;28;20029;-79
2022/09/11 09:57:15;;;;;;;2.22;2.13;;;;;;;30.12;34.31;97702.88;5057079;28;20037;-79
2022/09/11 10:00:03;;;;;;;2.47;2.28;;;;;;;29.62;33.24;97703.81;5054985;28;20670;-78
2022/09/11 10:02:38;;;;;;;2.42;2.30;;;;;;;29.70;32.22;97690.91;5062962;28;20059;-78
2022/09/11 10:05:24;;;;;;;3.13;2.80;;;;;;;30.36;32.51;97711.38;5062601;28;21737;-78
2022/09/11 10:07:59;;;;;;;2.45;2.30;;;;;;;29.90;35.43;97703.19;5061126;28;20489;-79
2022/09/11 10:10:31;;;;;;;2.72;2.53;;;;;;;29.69;34.16;97701.44;5066575;28;20045;-79
2022/09/11 10:13:04;;;;;;;2.20;2.00;;;;;;;29.52;31.35;97705.94;5065640;28;20108;-79
2022/09/11 10:15:37;;;;;;;2.17;2.08;;;;;;;29.47;31.74;97706.59;5063086;28;20052;-79
2022/09/11 10:18:31;;;;;;;2.95;2.25;;;;;;;29.19;32.58;97705.16;5064221;28;20377;-79
2022/09/11 10:21:17;;;;;;;2.78;2.53;;;;;;;29.80;32.95;97700.94;5059208;28;20045;-79
2022/09/11 10:23:56;;;;;;;2.00;1.90;;;;;;;29.83;31.68;97709.22;5066468;28;20039;-79
2022/09/11 10:26:37;;;;;;;2.15;2.05;;;;;;;29.96;32.40;97715.44;5066682;28;20028;-79
2022/09/11 10:29:12;;;;;;;1.77;1.67;;;;;;;30.57;31.04;97715.88;5060158;28;20037;-79
2022/09/11 10:31:40;;;;;;;2.30;2.10;;;;;;;30.49;30.75;97720.38;5064110;28;20493;-79
2022/09/11 10:34:13;;;;;;;1.75;1.65;;;;;;;30.47;30.95;97720.84;5062225;28;20077;-79
2022/09/11 10:36:50;;;;;;;1.77;1.67;;;;;;;30.31;31.64;97717.66;5061175;28;20082;-80
2022/09/11 10:39:18;;;;;;;1.55;1.45;;;;;;;30.66;32.40;97719.41;5068870;28;20075;-80
2022/09/11 10:41:51;;;;;;;2.53;2.10;;;;;;;30.90;31.25;97721.41;5062965;28;20072;-80
2022/09/11 10:44:17;;;;;;;2.17;2.05;;;;;;;30.32;34.57;97717.16;5066725;28;20030;-81
2022/09/11 10:46:44;;;;;;;2.20;2.03;;;;;;;30.98;29.92;97709.16;5067059;28;20104;-80
2022/09/11 10:49:18;;;;;;;2.17;2.05;;;;;;;30.65;30.85;97709.34;5065968;28;20036;-80
2022/09/11 10:52:09;;;;;;;2.65;2.50;;;;;;;29.91;32.76;97701.16;5067922;28;20053;-80
2022/09/11 10:54:38;;;;;;;2.28;2.17;;;;;;;30.53;33.35;97706.78;5063389;28;20028;-80
2022/09/11 10:57:28;;;;;;;2.58;2.33;;;;;;;31.94;30.12;97704.44;5064126;28;20389;-80
2022/09/11 11:00:07;;;;;;;2.50;2.08;;;;;;;33.04;29.48;97702.06;5064888;28;20401;-80
2022/09/11 11:02:45;;;;;;;1.75;1.65;;;;;;;33.70;27.30;97706.72;5059254;28;20115;-80
2022/09/11 11:05:20;;;;;;;1.80;1.65;;;;;;;32.70;27.58;97720.06;5064724;28;20040;-80
2022/09/11 11:08:27;;;;;;;1.67;1.58;;;;;;;31.11;31.13;97706.78;5067274;28;20036;-79
2022/09/11 11:11:05;;;;;;;1.70;1.60;;;;;;;31.74;29.95;97718.63;5065079;28;20086;-79
2022/09/11 11:13:34;;;;;;;1.67;1.50;;;;;;;31.15;28.74;97700.94;5066224;28;20032;-79
2022/09/11 11:16:14;;;;;;;2.45;1.60;;;;;;;31.18;29.09;97711.31;5066759;28;20029;-79
2022/09/11 11:19:08;;;;;;;1.80;1.70;;;;;;;30.49;31.06;97703.34;5064206;28;20371;-79
2022/09/11 11:22:16;;;;;;;1.73;1.63;;;;;;;31.09;30.55;97709.34;5062455;28;20047;-79
2022/09/11 11:24:45;;;;;;;3.83;1.65;;;;;;;31.24;30.17;97715.78;5065417;28;20056;-79
2022/09/11 11:27:27;;;;;;;1.70;1.60;;;;;;;31.05;30.04;97707.97;5060850;28;20064;-79
2022/09/11 11:30:07;;;;;;;1.90;1.80;;;;;;;30.85;30.50;97716.38;5058292;28;20037;-80
2022/09/11 11:32:48;;;;;;;2.10;1.90;;;;;;;29.95;31.05;97725.19;5064001;28;20460;-80
2022/09/11 11:35:51;;;;;;;3.75;2.20;;;;;;;29.68;32.66;97730.22;5064753;28;20029;-79
2022/09/11 11:38:35;;;;;;;2.72;2.53;;;;;;;29.84;31.90;97732.66;5064670;28;20024;-79
2022/09/11 11:41:19;;;;;;;3.05;2.55;;;;;;;30.52;31.32;97728.69;5061886;28;20086;-79
2022/09/11 11:43:47;;;;;;;2.90;2.70;;;;;;;30.47;35.17;97731.41;5066329;28;20075;-79
2022/09/11 11:46:19;;;;;;;3.35;3.08;;;;;;;30.12;32.03;97736.88;5071759;28;20036;-79
2022/09/11 11:48:51;;;;;;;3.08;2.88;;;;;;;30.65;32.24;97728.38;5071899;28;20032;-79
2022/09/11 11:51:22;;;;;;;2.55;2.35;;;;;;;30.98;30.77;97729.00;5070730;28;21954;-80
2022/09/11 11:54:11;;;;;;;2.90;2.70;;;;;;;31.51;30.74;97728.84;5067964;28;20112;-77
2022/09/11 11:56:40;;;;;;;3.28;2.90;;;;;;;31.17;31.29;97706.88;5063305;28;20155;-76
2022/09/11 11:59:15;;;;;;;3.33;3.13;;;;;;;31.49;31.16;97734.25;5062858;28;20040;-76